createdAt,value
2022-08-26T00:00:11.124Z,24.31
2022-08-26T00:02:41.335Z,24.28
2022-08-26T00:05:09.882Z,24.25
2022-08-26T00:07:37.843Z,24.41
2022-08-26T00:10:07.528Z,23.59
2022-08-26T00:12:37.435Z,24.04
2022-08-26T00:15:10.789Z,24.68
2022-08-26T00:17:40.326Z,24.42
2022-08-26T00:20:14.030Z,24.32
2022-08-26T00:22:42.563Z,24.46
2022-08-26T00:25:13.095Z,23.93
2022-08-26T00:27:43.938Z,23.93
2022-08-26T00:30:17.411Z,23.95
2022-08-26T00:32:50.764Z,23.67
2022-08-26T00:35:20.644Z,23.86
2022-08-26T00:37:48.691Z,24.28
2022-08-26T00:40:22.204Z,24.05
2022-08-26T00:42:50.071Z,24.40
2022-08-26T00:45:19.354Z,24.48
2022-08-26T00:47:51.233Z,24.66
2022-08-26T00:50:26.856Z,23.88
2022-08-26T00:52:58.576Z,23.90
2022-08-26T00:55:38.254Z,23.35
2022-08-26T00:58:09.393Z,23.47
2022-08-26T01:00:37.386Z,23.82
2022-08-26T01:03:05.806Z,23.85
2022-08-26T01:05:42.485Z,23.85
2022-08-26T01:08:10.295Z,24.09
2022-08-26T01:10:38.183Z,24.24
2022-08-26T01:13:11.861Z,23.67
2022-08-26T01:15:45.896Z,23.43
2022-08-26T01:18:15.985Z,23.34
2022-08-26T01:20:58.100Z,23.23
2022-08-26T01:23:57.700Z,23.26
2022-08-26T01:26:31.380Z,23.17
2022-08-26T01:29:05.245Z,23.34
2022-08-26T01:31:39.473Z,23.40
2022-08-26T01:34:16.583Z,23.44
2022-08-26T01:36:51.041Z,24.17
2022-08-26T01:39:21.545Z,23.86
2022-08-26T01:41:54.351Z,23.72
2022-08-26T01:44:28.788Z,23.51
2022-08-26T01:47:00.231Z,24.06
2022-08-26T01:49:29.692Z,24.32
2022-08-26T01:52:00.534Z,24.04
2022-08-26T01:54:29.874Z,24.01
2022-08-26T01:56:58.824Z,23.88
2022-08-26T01:59:27.196Z,23.01
2022-08-26T02:01:55.404Z,23.34
2022-08-26T02:04:30.924Z,23.34
2022-08-26T02:06:59.654Z,23.54
2022-08-26T02:09:29.589Z,24.09
2022-08-26T02:12:01.642Z,23.52
2022-08-26T02:14:35.679Z,23.10
2022-08-26T02:17:12.891Z,23.10
2022-08-26T02:19:46.152Z,22.81
2022-08-26T02:22:19.795Z,23.13
2022-08-26T02:24:52.911Z,23.00
2022-08-26T02:27:24.724Z,23.16
2022-08-26T02:29:59.594Z,23.05
2022-08-26T02:32:29.172Z,22.98
2022-08-26T02:34:57.028Z,22.86
2022-08-26T02:37:30.244Z,22.92
2022-08-26T02:39:59.694Z,22.87
2022-08-26T02:42:28.401Z,23.13
2022-08-26T02:44:56.405Z,23.39
2022-08-26T02:47:25.324Z,23.53
2022-08-26T02:49:56.921Z,23.15
2022-08-26T02:52:25.387Z,23.23
2022-08-26T02:54:53.607Z,23.35
2022-08-26T02:57:22.932Z,23.36
2022-08-26T02:59:52.280Z,23.62
2022-08-26T03:02:21.396Z,23.55
2022-08-26T03:04:57.911Z,23.68
2022-08-26T03:07:30.039Z,23.71
2022-08-26T03:09:58.042Z,23.71
2022-08-26T03:12:27.798Z,23.82
2022-08-26T03:14:56.306Z,23.64
2022-08-26T03:17:24.509Z,24.15
2022-08-26T03:19:57.363Z,23.84
2022-08-26T03:22:27.011Z,24.10
2022-08-26T03:24:55.495Z,23.90
2022-08-26T03:27:23.365Z,23.78
2022-08-26T03:30:11.895Z,23.32
2022-08-26T03:32:41.402Z,23.17
2022-08-26T03:35:10.538Z,23.26
2022-08-26T03:37:38.697Z,23.20
2022-08-26T03:40:10.384Z,23.05
2022-08-26T03:42:39.983Z,23.20
2022-08-26T03:45:11.970Z,22.97
2022-08-26T03:47:40.671Z,23.36
2022-08-26T03:50:14.069Z,23.15
2022-08-26T03:52:44.024Z,23.08
2022-08-26T03:55:12.830Z,22.91
2022-08-26T03:57:42.021Z,23.36
2022-08-26T04:00:18.431Z,23.76
2022-08-26T04:02:53.230Z,23.50
2022-08-26T04:05:23.982Z,23.25
2022-08-26T04:07:52.518Z,22.97
2022-08-26T04:10:28.612Z,22.89
2022-08-26T04:12:59.269Z,22.73
2022-08-26T04:15:29.316Z,23.27
2022-08-26T04:17:57.686Z,23.66
2022-08-26T04:20:26.315Z,23.69
2022-08-26T04:22:54.489Z,23.79
2022-08-26T04:25:22.566Z,23.31
2022-08-26T04:27:52.186Z,23.18
2022-08-26T04:30:21.203Z,22.78
2022-08-26T04:32:50.774Z,22.41
2022-08-26T04:35:20.914Z,22.54
2022-08-26T04:37:53.392Z,22.70
2022-08-26T04:40:21.700Z,22.77
2022-08-26T04:42:50.249Z,22.70
2022-08-26T04:45:19.352Z,22.50
2022-08-26T04:47:56.244Z,22.67
2022-08-26T04:50:25.718Z,22.79
2022-08-26T04:52:55.374Z,22.65
2022-08-26T04:55:25.270Z,22.76
2022-08-26T04:58:08.750Z,22.76
2022-08-26T05:00:39.429Z,23.43
2022-08-26T05:03:10.270Z,23.44
2022-08-26T05:05:41.123Z,23.18
2022-08-26T05:08:09.975Z,23.14
2022-08-26T05:10:41.971Z,23.53
2022-08-26T05:13:15.458Z,23.74
2022-08-26T05:15:44.998Z,23.48
2022-08-26T05:18:17.365Z,23.71
2022-08-26T05:20:51.710Z,23.94
2022-08-26T05:23:23.461Z,24.30
2022-08-26T05:25:58.922Z,24.52
2022-08-26T05:28:29.645Z,24.34
2022-08-26T05:30:57.846Z,23.10
2022-08-26T05:33:27.209Z,23.83
2022-08-26T05:35:55.056Z,23.89
2022-08-26T05:38:23.397Z,23.38
2022-08-26T05:40:53.193Z,23.75
2022-08-26T05:43:22.469Z,23.82
2022-08-26T05:45:51.971Z,23.42
2022-08-26T05:48:22.841Z,23.80
2022-08-26T05:50:54.463Z,24.41
2022-08-26T05:53:26.120Z,24.35
2022-08-26T05:55:56.591Z,23.98
2022-08-26T05:58:27.498Z,23.59
2022-08-26T06:01:02.940Z,23.38
2022-08-26T06:03:33.336Z,23.64
2022-08-26T06:06:07.385Z,23.75
2022-08-26T06:08:36.606Z,24.50
2022-08-26T06:11:08.036Z,24.58
2022-08-26T06:13:47.261Z,24.51
2022-08-26T06:16:19.462Z,25.00
2022-08-26T06:18:50.630Z,24.69
2022-08-26T06:21:23.361Z,24.18
2022-08-26T06:24:13.581Z,24.39
2022-08-26T06:26:43.879Z,24.42
2022-08-26T06:29:24.046Z,24.89
2022-08-26T06:31:53.638Z,25.09
2022-08-26T06:34:21.626Z,25.00
2022-08-26T06:36:52.236Z,25.38
2022-08-26T06:39:21.046Z,25.11
2022-08-26T06:41:49.565Z,25.59
2022-08-26T06:44:17.447Z,26.32
2022-08-26T06:46:45.927Z,26.29
2022-08-26T06:49:18.364Z,26.42
2022-08-26T06:51:58.222Z,26.38
2022-08-26T06:54:26.904Z,26.28
2022-08-26T06:56:56.778Z,25.97
2022-08-26T06:59:24.890Z,26.30
2022-08-26T07:01:53.336Z,26.47
2022-08-26T07:04:23.076Z,26.47
2022-08-26T07:06:53.821Z,26.05
2022-08-26T07:09:26.346Z,26.17
2022-08-26T07:11:56.139Z,25.59
2022-08-26T07:14:25.259Z,25.60
2022-08-26T07:16:54.721Z,26.79
2022-08-26T07:19:30.929Z,26.66
2022-08-26T07:22:02.074Z,26.44
2022-08-26T07:24:32.248Z,26.84
2022-08-26T07:27:02.773Z,26.51
2022-08-26T07:29:31.247Z,26.30
2022-08-26T07:31:59.935Z,26.40
2022-08-26T07:34:27.965Z,26.88
2022-08-26T07:36:57.007Z,27.06
2022-08-26T07:39:25.957Z,27.09
2022-08-26T07:41:55.274Z,27.62
2022-08-26T07:44:24.038Z,27.63
2022-08-26T07:46:53.339Z,26.80
2022-08-26T07:49:22.917Z,26.93
2022-08-26T07:51:51.858Z,27.25
2022-08-26T07:54:20.623Z,27.11
2022-08-26T07:56:56.492Z,27.87
2022-08-26T07:59:24.819Z,28.06
2022-08-26T08:01:52.893Z,27.66
2022-08-26T08:04:26.070Z,27.84
2022-08-26T08:06:55.033Z,28.46
2022-08-26T08:09:24.737Z,27.89
2022-08-26T08:11:53.827Z,27.59
2022-08-26T08:14:23.252Z,27.37
2022-08-26T08:16:54.866Z,28.21
2022-08-26T08:19:23.765Z,27.32
2022-08-26T08:21:55.211Z,27.33
2022-08-26T08:24:23.091Z,27.31
2022-08-26T08:27:23.897Z,26.96
2022-08-26T08:29:55.134Z,27.81
2022-08-26T08:32:23.957Z,27.90
2022-08-26T08:34:51.856Z,28.12
2022-08-26T08:37:20.088Z,27.83
2022-08-26T08:39:48.974Z,28.55
2022-08-26T08:42:45.342Z,28.10
2022-08-26T08:45:22.728Z,28.99
2022-08-26T08:47:56.280Z,28.25
2022-08-26T08:50:29.986Z,27.67
2022-08-26T08:53:22.659Z,27.72
2022-08-26T08:56:04.828Z,27.62
2022-08-26T08:58:52.421Z,27.75
2022-08-26T09:01:36.110Z,27.99
2022-08-26T09:04:32.062Z,27.88
2022-08-26T09:07:03.715Z,27.87
2022-08-26T09:09:39.327Z,28.56
2022-08-26T09:12:16.038Z,28.53
2022-08-26T09:14:45.124Z,28.53
2022-08-26T09:17:26.999Z,28.40
2022-08-26T09:20:07.958Z,28.47
2022-08-26T09:22:40.065Z,28.27
2022-08-26T09:25:15.723Z,29.55
2022-08-26T09:27:47.712Z,29.02
2022-08-26T09:30:27.047Z,29.28
2022-08-26T09:33:10.142Z,29.63
2022-08-26T09:35:42.879Z,29.30
2022-08-26T09:38:26.702Z,28.71
2022-08-26T09:40:59.148Z,29.12
2022-08-26T09:43:29.032Z,29.15
2022-08-26T09:46:15.448Z,29.64
2022-08-26T09:48:44.787Z,29.60
2022-08-26T09:51:31.046Z,29.39
2022-08-26T09:54:02.676Z,30.09
2022-08-26T09:56:34.397Z,29.62
2022-08-26T09:59:04.628Z,29.55
2022-08-26T10:01:41.896Z,29.16
2022-08-26T10:04:14.907Z,29.96
2022-08-26T10:06:57.330Z,30.21
2022-08-26T10:09:28.163Z,29.46
2022-08-26T10:12:01.862Z,29.76
2022-08-26T10:14:36.323Z,30.01
2022-08-26T10:17:12.109Z,28.98
2022-08-26T10:19:56.791Z,28.97
2022-08-26T10:22:36.183Z,29.43
2022-08-26T10:25:12.959Z,29.28
2022-08-26T10:27:53.382Z,29.18
2022-08-26T10:30:28.529Z,29.50
2022-08-26T10:33:05.682Z,29.82
2022-08-26T10:35:44.011Z,29.50
2022-08-26T10:38:19.494Z,29.95
2022-08-26T10:40:58.959Z,29.54
2022-08-26T10:43:31.617Z,29.79
2022-08-26T10:46:06.929Z,30.71
2022-08-26T10:48:44.846Z,30.14
2022-08-26T10:51:17.523Z,30.56
2022-08-26T10:53:58.207Z,30.01
2022-08-26T10:56:42.576Z,30.25
2022-08-26T10:59:19.601Z,30.35
2022-08-26T11:01:58.582Z,30.63
2022-08-26T11:04:48.198Z,31.10
2022-08-26T11:07:43.832Z,30.60
2022-08-26T11:10:58.865Z,30.96
2022-08-26T11:14:02.030Z,30.71
2022-08-26T11:16:37.264Z,30.48
2022-08-26T11:19:58.938Z,30.85
2022-08-26T11:22:28.596Z,29.83
2022-08-26T11:25:13.575Z,29.88
2022-08-26T11:28:05.078Z,30.00
2022-08-26T11:30:56.830Z,30.25
2022-08-26T11:33:57.934Z,30.74
2022-08-26T11:36:59.016Z,30.86
2022-08-26T11:39:36.913Z,30.68
2022-08-26T11:42:33.163Z,30.40
2022-08-26T11:45:18.086Z,28.72
2022-08-26T11:47:46.874Z,28.38
2022-08-26T11:50:23.324Z,27.37
2022-08-26T11:53:01.565Z,27.00
2022-08-26T11:55:30.849Z,26.73
2022-08-26T11:58:04.859Z,26.65
2022-08-26T12:00:53.091Z,25.87
2022-08-26T12:03:26.788Z,25.92
2022-08-26T12:05:55.490Z,25.80
2022-08-26T12:08:31.082Z,25.60
2022-08-26T12:11:09.413Z,26.31
2022-08-26T12:13:39.172Z,25.90
2022-08-26T12:16:08.927Z,26.42
2022-08-26T12:18:39.889Z,25.55
2022-08-26T12:21:24.378Z,25.85
2022-08-26T12:23:55.802Z,25.59
2022-08-26T12:26:28.915Z,25.28
2022-08-26T12:29:02.297Z,24.94
2022-08-26T12:31:44.862Z,24.81
2022-08-26T12:34:18.452Z,24.72
2022-08-26T12:36:50.728Z,25.05
2022-08-26T12:39:28.116Z,24.74
2022-08-26T12:41:58.408Z,24.69
2022-08-26T12:44:35.799Z,24.79
2022-08-26T12:47:10.411Z,24.71
2022-08-26T12:49:40.671Z,24.61
2022-08-26T12:52:29.954Z,24.62
2022-08-26T12:55:01.227Z,24.78
2022-08-26T12:57:35.093Z,24.60
2022-08-26T13:00:30.252Z,24.31
2022-08-26T13:03:01.778Z,23.65
2022-08-26T13:05:35.489Z,23.69
2022-08-26T13:08:25.810Z,24.16
2022-08-26T13:11:10.358Z,24.52
2022-08-26T13:13:40.339Z,23.74
2022-08-26T13:16:09.033Z,24.39
2022-08-26T13:18:38.720Z,24.45
2022-08-26T13:21:13.986Z,24.11
2022-08-26T13:23:42.610Z,23.94
2022-08-26T13:26:10.550Z,23.77
2022-08-26T13:28:38.881Z,24.08
2022-08-26T13:31:07.449Z,24.40
2022-08-26T13:33:35.863Z,24.04
2022-08-26T13:36:06.463Z,24.11
2022-08-26T13:38:34.376Z,23.56
2022-08-26T13:41:03.631Z,23.28
2022-08-26T13:43:32.652Z,23.07
2022-08-26T13:46:01.760Z,22.99
2022-08-26T13:48:29.708Z,22.66
2022-08-26T13:50:57.916Z,22.10
2022-08-26T13:53:29.187Z,21.85
2022-08-26T13:55:57.806Z,22.09
2022-08-26T13:58:26.091Z,22.08
2022-08-26T14:00:55.294Z,21.95
2022-08-26T14:03:24.601Z,21.84
2022-08-26T14:05:53.380Z,21.84
2022-08-26T14:08:22.412Z,22.20
2022-08-26T14:10:51.558Z,22.57
2022-08-26T14:13:19.559Z,23.41
2022-08-26T14:15:47.810Z,23.54
2022-08-26T14:18:22.177Z,22.77
2022-08-26T14:20:52.104Z,22.18
2022-08-26T14:23:20.068Z,22.15
2022-08-26T14:25:47.900Z,22.72
2022-08-26T14:28:17.144Z,23.49
2022-08-26T14:30:52.034Z,24.02
2022-08-26T14:33:26.713Z,23.31
2022-08-26T14:36:14.703Z,23.59
2022-08-26T14:38:42.607Z,24.03
2022-08-26T14:41:11.727Z,23.86
2022-08-26T14:43:48.190Z,24.36
2022-08-26T14:46:18.275Z,24.59
2022-08-26T14:48:46.647Z,24.26
2022-08-26T14:51:14.491Z,23.66
2022-08-26T14:54:00.014Z,23.93
2022-08-26T14:56:29.556Z,24.08
2022-08-26T14:58:58.720Z,23.98
2022-08-26T15:01:30.759Z,24.38
2022-08-26T15:03:59.536Z,24.11
2022-08-26T15:06:27.994Z,24.35
2022-08-26T15:08:55.842Z,23.42
2022-08-26T15:11:23.848Z,22.95
2022-08-26T15:13:52.601Z,22.58
2022-08-26T15:16:22.840Z,21.87
2022-08-26T15:18:52.207Z,21.60
2022-08-26T15:21:20.892Z,21.41
2022-08-26T15:23:50.427Z,21.10
2022-08-26T15:26:19.110Z,21.06
2022-08-26T15:28:47.422Z,21.41
2022-08-26T15:31:17.185Z,21.51
2022-08-26T15:33:47.102Z,22.17
2022-08-26T15:36:14.997Z,22.82
2022-08-26T15:38:43.311Z,23.53
2022-08-26T15:41:11.756Z,23.07
2022-08-26T15:43:39.709Z,23.08
2022-08-26T15:46:12.768Z,22.73
2022-08-26T15:48:41.400Z,22.72
2022-08-26T15:51:23.056Z,23.08
2022-08-26T15:53:51.170Z,22.88
2022-08-26T15:56:22.297Z,23.32
2022-08-26T15:58:50.558Z,23.79
2022-08-26T16:01:27.212Z,22.89
2022-08-26T16:03:56.634Z,22.46
2022-08-26T16:06:30.661Z,22.37
2022-08-26T16:08:59.229Z,22.37
2022-08-26T16:11:29.070Z,21.93
2022-08-26T16:13:57.270Z,21.96
2022-08-26T16:16:25.767Z,22.45
2022-08-26T16:18:54.743Z,22.42
2022-08-26T16:21:28.577Z,22.82
2022-08-26T16:23:58.397Z,22.12
2022-08-26T16:26:29.659Z,21.98
2022-08-26T16:28:57.493Z,22.14
2022-08-26T16:31:25.537Z,21.65
2022-08-26T16:33:53.409Z,21.36
2022-08-26T16:36:21.274Z,21.58
2022-08-26T16:38:56.095Z,21.55
2022-08-26T16:41:25.871Z,22.33
2022-08-26T16:43:53.868Z,22.76
2022-08-26T16:46:23.651Z,23.18
2022-08-26T16:48:52.324Z,23.46
2022-08-26T16:51:23.294Z,23.74
2022-08-26T16:53:53.757Z,23.98
2022-08-26T16:56:33.482Z,23.64
2022-08-26T16:59:04.079Z,23.63
2022-08-26T17:01:31.999Z,23.99
2022-08-26T17:03:59.921Z,23.55
2022-08-26T17:06:27.971Z,23.79
2022-08-26T17:08:57.133Z,23.64
2022-08-26T17:11:24.991Z,23.63
2022-08-26T17:13:52.948Z,23.41
2022-08-26T17:16:26.390Z,23.67
2022-08-26T17:18:55.679Z,23.72
2022-08-26T17:21:23.640Z,24.04
2022-08-26T17:23:51.833Z,24.10
2022-08-26T17:26:21.661Z,24.24
2022-08-26T17:28:50.615Z,23.71
2022-08-26T17:31:18.973Z,23.76
2022-08-26T17:33:50.357Z,23.51
2022-08-26T17:36:27.699Z,23.74
2022-08-26T17:38:57.204Z,23.78
2022-08-26T17:41:27.692Z,23.81
2022-08-26T17:43:55.678Z,23.67
2022-08-26T17:46:24.327Z,23.59
2022-08-26T17:48:52.367Z,24.06
2022-08-26T17:51:21.916Z,23.96
2022-08-26T17:53:50.768Z,23.96
2022-08-26T17:56:24.940Z,24.05
2022-08-26T17:58:57.681Z,24.04
2022-08-26T18:01:30.737Z,23.20
2022-08-26T18:04:00.585Z,22.74
2022-08-26T18:06:30.489Z,23.38
2022-08-26T18:08:59.242Z,23.20
2022-08-26T18:11:28.266Z,23.64
2022-08-26T18:13:57.640Z,23.68
2022-08-26T18:16:25.988Z,23.23
2022-08-26T18:18:55.492Z,23.49
2022-08-26T18:21:28.567Z,23.80
2022-08-26T18:23:56.905Z,23.64
2022-08-26T18:26:28.291Z,23.25
2022-08-26T18:28:58.065Z,23.36
2022-08-26T18:31:27.219Z,23.24
2022-08-26T18:33:55.993Z,23.31
2022-08-26T18:36:28.089Z,23.33
2022-08-26T18:38:57.017Z,23.56
2022-08-26T18:41:28.720Z,23.46
2022-08-26T18:43:58.671Z,23.03
2022-08-26T18:46:29.058Z,23.21
2022-08-26T18:48:58.572Z,23.34
2022-08-26T18:51:30.178Z,23.09
2022-08-26T18:53:59.694Z,23.10
2022-08-26T18:56:29.014Z,23.58
2022-08-26T18:58:59.785Z,23.64
2022-08-26T19:01:30.101Z,23.38
2022-08-26T19:04:00.091Z,23.27
2022-08-26T19:06:32.853Z,22.66
2022-08-26T19:09:01.401Z,22.11
2022-08-26T19:11:32.557Z,22.32
2022-08-26T19:14:09.286Z,22.73
2022-08-26T19:16:38.618Z,22.87
2022-08-26T19:19:07.351Z,23.15
2022-08-26T19:21:37.888Z,23.26
2022-08-26T19:24:17.402Z,23.16
2022-08-26T19:26:47.432Z,22.88
2022-08-26T19:31:51.078Z,23.14
2022-08-26T19:34:20.899Z,22.95
2022-08-26T19:36:49.368Z,22.69
2022-08-26T19:39:24.366Z,22.89
2022-08-26T19:41:52.629Z,22.96
2022-08-26T19:44:41.821Z,22.60
2022-08-26T19:47:12.947Z,22.82
2022-08-26T19:49:41.102Z,22.99
2022-08-26T19:52:10.990Z,22.87
2022-08-26T19:54:44.596Z,22.84
2022-08-26T19:57:20.206Z,22.89
2022-08-26T19:59:49.690Z,22.98
2022-08-26T20:02:18.147Z,23.05
2022-08-26T20:04:46.296Z,22.82
2022-08-26T20:07:18.555Z,22.65
2022-08-26T20:09:49.170Z,22.63
2022-08-26T20:12:18.681Z,22.54
2022-08-26T20:14:46.776Z,22.55
2022-08-26T20:17:17.030Z,22.97
2022-08-26T20:20:03.074Z,23.01
2022-08-26T20:22:32.091Z,22.95
2022-08-26T20:25:00.348Z,23.06
2022-08-26T20:27:34.352Z,22.85
2022-08-26T20:30:11.263Z,23.13
2022-08-26T20:32:42.495Z,21.78
2022-08-26T20:35:14.261Z,21.65
2022-08-26T20:37:43.265Z,22.27
2022-08-26T20:40:14.053Z,22.90
2022-08-26T20:42:43.697Z,22.94
2022-08-26T20:45:13.349Z,22.76
2022-08-26T20:47:43.846Z,22.72
2022-08-26T20:50:11.767Z,22.84
2022-08-26T20:52:39.642Z,22.80
2022-08-26T20:55:08.645Z,22.90
2022-08-26T20:57:38.392Z,22.90
2022-08-26T21:00:08.306Z,22.89
2022-08-26T21:02:36.964Z,22.49
2022-08-26T21:05:10.700Z,22.68
2022-08-26T21:07:39.342Z,22.86
2022-08-26T21:10:08.535Z,22.33
2022-08-26T21:12:36.501Z,22.62
2022-08-26T21:15:08.332Z,22.03
2022-08-26T21:17:36.272Z,22.53
2022-08-26T21:20:09.490Z,22.60
2022-08-26T21:22:37.359Z,22.78
2022-08-26T21:25:09.222Z,22.50
2022-08-26T21:27:38.339Z,22.86
2022-08-26T21:30:08.155Z,22.81
2022-08-26T21:32:36.453Z,22.70
2022-08-26T21:35:06.146Z,23.09
2022-08-26T21:37:34.365Z,22.97
2022-08-26T21:40:04.055Z,23.00
2022-08-26T21:42:36.827Z,23.24
2022-08-26T21:45:07.654Z,22.75
2022-08-26T21:47:38.458Z,22.54
2022-08-26T21:50:10.285Z,22.14
2022-08-26T21:52:39.324Z,22.24
2022-08-26T21:55:09.274Z,22.91
2022-08-26T21:57:39.894Z,22.85
2022-08-26T22:00:13.026Z,23.27
2022-08-26T22:02:41.029Z,22.46
2022-08-26T22:05:11.086Z,22.75
2022-08-26T22:07:38.954Z,22.98
2022-08-26T22:10:08.153Z,23.15
2022-08-26T22:12:36.130Z,23.51
2022-08-26T22:15:04.676Z,23.42
2022-08-26T22:17:32.508Z,23.44
2022-08-26T22:20:00.525Z,23.34
2022-08-26T22:22:29.933Z,23.63
2022-08-26T22:24:57.967Z,23.38
2022-08-26T22:27:26.320Z,23.21
2022-08-26T22:29:54.176Z,23.45
2022-08-26T22:32:22.816Z,23.10
2022-08-26T22:34:50.653Z,23.08
2022-08-26T22:37:18.549Z,23.17
2022-08-26T22:39:47.847Z,23.22
2022-08-26T22:42:16.034Z,23.01
2022-08-26T22:44:44.069Z,22.71
2022-08-26T22:47:12.064Z,22.40
2022-08-26T22:49:39.996Z,21.84
2022-08-26T22:52:07.929Z,21.95
2022-08-26T22:54:35.800Z,22.12
2022-08-26T22:57:05.603Z,21.86
2022-08-26T22:59:33.717Z,21.78
2022-08-26T23:02:01.947Z,21.91
2022-08-26T23:04:30.061Z,21.99
2022-08-26T23:06:58.272Z,21.96
2022-08-26T23:09:26.139Z,21.77
2022-08-26T23:11:55.869Z,21.65
2022-08-26T23:14:26.961Z,21.72
2022-08-26T23:16:55.084Z,21.79
2022-08-26T23:19:24.364Z,21.69
2022-08-26T23:21:52.869Z,21.43
2022-08-26T23:24:21.104Z,21.76
2022-08-26T23:26:50.001Z,21.27
2022-08-26T23:29:18.093Z,21.52
2022-08-26T23:31:47.562Z,21.97
2022-08-26T23:34:33.021Z,22.15
2022-08-26T23:37:01.263Z,21.63
2022-08-26T23:39:29.466Z,21.80
2022-08-26T23:41:58.017Z,22.19
2022-08-26T23:44:26.632Z,21.80
2022-08-26T23:46:56.420Z,21.77
2022-08-26T23:49:25.371Z,21.82
2022-08-26T23:52:11.501Z,22.20
2022-08-26T23:54:40.505Z,22.65
2022-08-26T23:57:09.328Z,23.17
2022-08-26T23:59:38.563Z,23.00
